createdAt,value
2019-06-20T00:00:32.080Z,16.58
2019-06-20T00:01:32.084Z,16.57
2019-06-20T00:02:32.029Z,16.56
2019-06-20T00:03:32.075Z,16.56
2019-06-20T00:04:32.075Z,16.57
2019-06-20T00:05:32.062Z,16.56
2019-06-20T00:06:32.109Z,16.51
2019-06-20T00:07:32.087Z,16.50
2019-06-20T00:08:32.061Z,16.48
2019-06-20T00:09:32.109Z,16.44
2019-06-20T00:10:32.065Z,16.42
2019-06-20T00:11:32.028Z,16.43
2019-06-20T00:12:32.087Z,16.42
2019-06-20T00:13:32.080Z,16.42
2019-06-20T00:14:32.041Z,16.40
2019-06-20T00:15:32.111Z,16.36
2019-06-20T00:16:32.064Z,16.27
2019-06-20T00:17:32.040Z,16.27
2019-06-20T00:18:32.102Z,16.28
2019-06-20T00:19:32.111Z,16.26
2019-06-20T00:20:32.145Z,16.09
2019-06-20T00:21:32.124Z,15.97
2019-06-20T00:22:32.074Z,15.93
2019-06-20T00:23:32.070Z,16.02
2019-06-20T00:24:32.123Z,16.09
2019-06-20T00:25:32.145Z,16.09
2019-06-20T00:26:32.072Z,16.11
2019-06-20T00:27:32.085Z,16.10
2019-06-20T00:28:32.076Z,16.09
2019-06-20T00:29:32.077Z,16.09
2019-06-20T00:30:32.109Z,16.07
2019-06-20T00:31:32.122Z,16.11
2019-06-20T00:32:32.077Z,16.11
2019-06-20T00:33:32.098Z,16.11
2019-06-20T00:34:32.176Z,16.12
2019-06-20T00:35:32.101Z,16.04
2019-06-20T00:36:32.123Z,16.01
2019-06-20T00:37:32.149Z,16.01
2019-06-20T00:38:32.085Z,15.94
2019-06-20T00:39:32.117Z,15.93
2019-06-20T00:40:32.101Z,15.94
2019-06-20T00:41:32.109Z,15.99
2019-06-20T00:42:32.171Z,15.97
2019-06-20T00:43:32.154Z,15.99
2019-06-20T00:44:32.104Z,16.00
2019-06-20T00:45:32.124Z,16.00
2019-06-20T00:46:32.103Z,16.00
2019-06-20T00:47:32.074Z,15.92
2019-06-20T00:48:32.168Z,15.73
2019-06-20T00:49:32.155Z,15.79
2019-06-20T00:50:32.089Z,15.85
2019-06-20T00:51:32.142Z,15.90
2019-06-20T00:52:32.112Z,15.86
2019-06-20T00:53:32.077Z,15.89
2019-06-20T00:54:32.158Z,15.89
2019-06-20T00:55:32.160Z,15.89
2019-06-20T00:56:32.089Z,15.92
2019-06-20T00:57:32.127Z,15.90
2019-06-20T00:58:32.107Z,15.89
2019-06-20T00:59:32.142Z,15.88
2019-06-20T01:00:32.163Z,15.86
2019-06-20T01:01:32.166Z,15.79
2019-06-20T01:02:32.083Z,15.65
2019-06-20T01:03:32.095Z,15.69
2019-06-20T01:04:32.121Z,15.74
2019-06-20T01:05:32.109Z,15.78
2019-06-20T01:06:32.144Z,15.77
2019-06-20T01:07:32.145Z,15.77
2019-06-20T01:08:32.086Z,15.76
2019-06-20T01:09:32.147Z,15.77
2019-06-20T01:10:32.122Z,15.76
2019-06-20T01:11:32.078Z,15.78
2019-06-20T01:12:32.148Z,15.78
2019-06-20T01:13:34.154Z,15.76
2019-06-20T01:14:32.118Z,15.76
2019-06-20T01:15:32.200Z,15.76
2019-06-20T01:16:32.122Z,15.77
2019-06-20T01:17:32.124Z,15.72
2019-06-20T01:18:32.183Z,15.74
2019-06-20T01:19:32.212Z,15.72
2019-06-20T01:20:32.117Z,15.75
2019-06-20T01:21:32.168Z,15.77
2019-06-20T01:22:32.155Z,15.72
2019-06-20T01:23:32.141Z,15.71
2019-06-20T01:24:32.151Z,15.70
2019-06-20T01:25:32.182Z,15.64
2019-06-20T01:26:32.130Z,15.67
2019-06-20T01:27:32.193Z,15.64
2019-06-20T01:28:32.167Z,15.68
2019-06-20T01:29:32.130Z,15.62
2019-06-20T01:30:32.153Z,15.64
2019-06-20T01:31:32.175Z,15.70
2019-06-20T01:32:32.155Z,15.65
2019-06-20T01:33:32.137Z,15.65
2019-06-20T01:34:32.196Z,15.67
2019-06-20T01:35:32.143Z,15.66
2019-06-20T01:36:32.199Z,15.66
2019-06-20T01:37:32.178Z,15.66
2019-06-20T01:38:32.150Z,15.62
2019-06-20T01:39:32.170Z,15.65
2019-06-20T01:40:32.144Z,15.66
2019-06-20T01:41:32.161Z,15.67
2019-06-20T01:42:32.153Z,15.65
2019-06-20T01:43:32.217Z,15.65
2019-06-20T01:44:32.139Z,15.63
2019-06-20T01:45:32.180Z,15.64
2019-06-20T01:46:32.189Z,15.59
2019-06-20T01:47:32.166Z,15.57
2019-06-20T01:48:32.223Z,15.65
2019-06-20T01:49:32.215Z,15.66
2019-06-20T01:50:32.158Z,15.60
2019-06-20T01:51:32.179Z,15.58
2019-06-20T01:52:32.181Z,15.50
2019-06-20T01:53:32.156Z,15.33
2019-06-20T01:54:32.219Z,15.38
2019-06-20T01:55:32.234Z,15.46
2019-06-20T01:56:32.151Z,15.51
2019-06-20T01:57:32.215Z,15.49
2019-06-20T01:58:32.194Z,15.46
2019-06-20T01:59:32.147Z,15.43
2019-06-20T02:00:32.193Z,15.41
2019-06-20T02:01:32.224Z,15.43
2019-06-20T02:02:32.143Z,15.41
2019-06-20T02:03:32.223Z,15.36
2019-06-20T02:04:32.170Z,15.33
2019-06-20T02:05:32.177Z,15.24
2019-06-20T02:06:32.241Z,15.27
2019-06-20T02:07:32.205Z,15.34
2019-06-20T02:08:32.179Z,15.39
2019-06-20T02:09:32.197Z,15.43
2019-06-20T02:10:32.218Z,15.42
2019-06-20T02:11:32.195Z,15.38
2019-06-20T02:12:32.198Z,15.35
2019-06-20T02:13:32.214Z,15.33
2019-06-20T02:14:32.183Z,15.24
2019-06-20T02:15:32.185Z,15.23
2019-06-20T02:16:32.210Z,15.23
2019-06-20T02:17:32.157Z,15.25
2019-06-20T02:18:32.215Z,15.29
2019-06-20T02:19:32.227Z,15.31
2019-06-20T02:20:32.177Z,15.29
2019-06-20T02:21:32.226Z,15.34
2019-06-20T02:22:32.219Z,15.28
2019-06-20T02:23:32.197Z,15.27
2019-06-20T02:24:32.223Z,15.24
2019-06-20T02:25:32.229Z,15.23
2019-06-20T02:26:32.205Z,15.25
2019-06-20T02:27:32.233Z,15.29
2019-06-20T02:28:32.227Z,15.26
2019-06-20T02:29:32.200Z,15.20
2019-06-20T02:30:32.232Z,15.19
2019-06-20T02:31:32.251Z,15.19
2019-06-20T02:32:32.207Z,15.25
2019-06-20T02:33:32.227Z,15.33
2019-06-20T02:34:32.221Z,15.34
2019-06-20T02:35:32.188Z,15.32
2019-06-20T02:36:32.265Z,15.30
2019-06-20T02:37:32.225Z,15.33
2019-06-20T02:38:32.167Z,15.30
2019-06-20T02:39:32.241Z,15.29
2019-06-20T02:40:32.213Z,15.28
2019-06-20T02:41:32.281Z,15.24
2019-06-20T02:42:32.238Z,15.17
2019-06-20T02:43:32.257Z,15.11
2019-06-20T02:44:32.237Z,15.01
2019-06-20T02:45:32.246Z,15.10
2019-06-20T02:46:32.212Z,15.18
2019-06-20T02:47:32.191Z,15.22
2019-06-20T02:48:32.271Z,15.20
2019-06-20T02:49:32.248Z,15.19
2019-06-20T02:50:32.204Z,15.20
2019-06-20T02:51:32.258Z,15.16
2019-06-20T02:52:32.234Z,15.17
2019-06-20T02:53:32.193Z,15.17
2019-06-20T02:54:32.274Z,15.19
2019-06-20T02:55:32.254Z,15.21
2019-06-20T02:56:32.207Z,15.20
2019-06-20T02:57:32.258Z,15.19
2019-06-20T02:58:32.241Z,15.08
2019-06-20T02:59:32.216Z,15.07
2019-06-20T03:00:32.251Z,14.91
2019-06-20T03:01:32.273Z,14.95
2019-06-20T03:02:32.204Z,14.95
2019-06-20T03:03:32.277Z,14.95
2019-06-20T03:04:32.266Z,15.03
2019-06-20T03:05:32.245Z,15.04
2019-06-20T03:06:32.282Z,15.01
2019-06-20T03:07:32.260Z,15.00
2019-06-20T03:08:32.231Z,14.98
2019-06-20T03:09:32.273Z,14.99
2019-06-20T03:10:32.271Z,14.97
2019-06-20T03:11:32.247Z,14.94
2019-06-20T03:12:32.238Z,14.95
2019-06-20T03:13:32.283Z,14.95
2019-06-20T03:14:44.544Z,14.96
2019-06-20T03:15:32.239Z,14.97
2019-06-20T03:16:32.244Z,15.00
2019-06-20T03:17:32.238Z,14.99
2019-06-20T03:18:32.243Z,14.95
2019-06-20T03:19:32.282Z,14.99
2019-06-20T03:20:32.224Z,15.02
2019-06-20T03:21:32.242Z,15.04
2019-06-20T03:22:32.253Z,15.11
2019-06-20T03:23:32.238Z,15.04
2019-06-20T03:24:32.296Z,15.03
2019-06-20T03:25:32.288Z,15.04
2019-06-20T03:26:32.244Z,15.04
2019-06-20T03:27:32.286Z,15.05
2019-06-20T03:28:32.277Z,15.06
2019-06-20T03:29:32.230Z,15.08
2019-06-20T03:30:32.312Z,15.08
2019-06-20T03:31:32.291Z,15.08
2019-06-20T03:32:32.300Z,15.10
2019-06-20T03:33:32.302Z,15.05
2019-06-20T03:34:32.272Z,15.06
2019-06-20T03:35:32.273Z,15.08
2019-06-20T03:36:32.311Z,15.10
2019-06-20T03:37:32.296Z,15.12
2019-06-20T03:38:32.262Z,15.11
2019-06-20T03:39:32.302Z,15.05
2019-06-20T03:40:32.276Z,15.12
2019-06-20T03:41:32.252Z,15.13
2019-06-20T03:42:32.298Z,14.99
2019-06-20T03:43:32.304Z,15.09
2019-06-20T03:44:32.275Z,15.19
2019-06-20T03:45:32.310Z,15.28
2019-06-20T03:46:32.308Z,15.33
2019-06-20T03:47:32.267Z,15.35
2019-06-20T03:48:32.309Z,15.39
2019-06-20T03:49:32.301Z,15.40
2019-06-20T03:50:32.255Z,15.39
2019-06-20T03:51:32.308Z,15.39
2019-06-20T03:52:32.263Z,15.39
2019-06-20T03:53:32.284Z,15.37
2019-06-20T03:54:32.320Z,15.35
2019-06-20T03:55:32.316Z,15.39
2019-06-20T03:56:32.266Z,15.45
2019-06-20T03:57:32.310Z,15.42
2019-06-20T03:58:32.289Z,15.41
2019-06-20T03:59:32.298Z,15.40
2019-06-20T04:00:32.303Z,15.38
2019-06-20T04:01:32.318Z,15.38
2019-06-20T04:02:32.261Z,15.39
2019-06-20T04:03:32.283Z,15.37
2019-06-20T04:04:32.300Z,15.34
2019-06-20T04:05:32.269Z,15.35
2019-06-20T04:06:32.338Z,15.40
2019-06-20T04:07:32.327Z,15.44
2019-06-20T04:08:32.281Z,15.51
2019-06-20T04:09:32.331Z,15.55
2019-06-20T04:10:32.314Z,15.59
2019-06-20T04:11:32.279Z,15.61
2019-06-20T04:12:32.355Z,15.62
2019-06-20T04:13:32.335Z,15.64
2019-06-20T04:14:32.280Z,15.63
2019-06-20T04:15:32.345Z,15.54
2019-06-20T04:16:32.342Z,15.47
2019-06-20T04:17:32.305Z,15.44
2019-06-20T04:18:32.368Z,15.50
2019-06-20T04:19:32.327Z,15.47
2019-06-20T04:20:32.281Z,15.47
2019-06-20T04:21:32.356Z,15.40
2019-06-20T04:22:32.320Z,15.39
2019-06-20T04:23:32.292Z,15.45
2019-06-20T04:24:32.325Z,15.50
2019-06-20T04:25:32.340Z,15.57
2019-06-20T04:26:32.295Z,15.58
2019-06-20T04:27:32.336Z,15.61
2019-06-20T04:28:32.328Z,15.54
2019-06-20T04:29:35.787Z,15.54
2019-06-20T04:30:32.499Z,15.53
2019-06-20T04:31:32.345Z,15.53
2019-06-20T04:32:32.312Z,15.59
2019-06-20T04:33:32.350Z,15.61
2019-06-20T04:34:32.317Z,15.69
2019-06-20T04:35:32.302Z,15.76
2019-06-20T04:36:32.326Z,15.85
2019-06-20T04:37:32.562Z,15.89
2019-06-20T04:38:32.297Z,16.04
2019-06-20T04:39:32.306Z,16.21
2019-06-20T04:40:32.328Z,16.28
2019-06-20T04:41:32.304Z,16.42
2019-06-20T04:42:32.382Z,16.65
2019-06-20T04:43:32.346Z,16.73
2019-06-20T04:44:32.325Z,16.90
2019-06-20T04:45:35.489Z,17.09
2019-06-20T04:46:32.336Z,17.01
2019-06-20T04:47:32.315Z,16.71
2019-06-20T04:48:32.341Z,16.95
2019-06-20T04:49:32.337Z,17.18
2019-06-20T04:50:32.288Z,17.43
2019-06-20T04:51:32.324Z,17.46
2019-06-20T04:52:32.333Z,17.43
2019-06-20T04:53:32.310Z,17.29
2019-06-20T04:54:32.384Z,17.21
2019-06-20T04:55:32.368Z,17.08
2019-06-20T04:56:32.334Z,16.98
2019-06-20T04:57:32.373Z,17.12
2019-06-20T04:58:32.356Z,17.20
2019-06-20T04:59:32.349Z,17.15
2019-06-20T05:00:32.350Z,17.14
2019-06-20T05:01:32.370Z,17.10
2019-06-20T05:02:32.311Z,17.16
2019-06-20T05:03:32.372Z,17.25
2019-06-20T05:04:32.356Z,17.32
2019-06-20T05:05:32.330Z,17.51
2019-06-20T05:06:32.370Z,17.72
2019-06-20T05:07:32.370Z,17.99
2019-06-20T05:08:32.343Z,18.14
2019-06-20T05:09:32.372Z,18.59
2019-06-20T05:10:32.370Z,18.76
2019-06-20T05:11:32.344Z,18.56
2019-06-20T05:12:32.822Z,19.17
2019-06-20T05:13:32.389Z,19.60
2019-06-20T05:14:32.350Z,19.88
2019-06-20T05:15:32.380Z,20.23
2019-06-20T05:16:32.380Z,20.51
2019-06-20T05:17:32.337Z,20.78
2019-06-20T05:18:32.381Z,20.99
2019-06-20T05:19:32.354Z,21.28
2019-06-20T05:20:32.328Z,21.66
2019-06-20T05:21:32.340Z,21.25
2019-06-20T05:22:32.372Z,21.44
2019-06-20T05:23:32.317Z,21.94
2019-06-20T05:24:32.391Z,21.75
2019-06-20T05:25:32.376Z,22.30
2019-06-20T05:26:32.332Z,21.63
2019-06-20T05:27:32.356Z,21.46
2019-06-20T05:28:32.342Z,21.62
2019-06-20T05:29:32.337Z,21.61
2019-06-20T05:30:32.403Z,21.93
2019-06-20T05:31:32.368Z,21.64
2019-06-20T05:32:32.360Z,21.89
2019-06-20T05:33:32.380Z,22.42
2019-06-20T05:34:32.349Z,22.42
2019-06-20T05:35:32.365Z,23.03
2019-06-20T05:36:32.412Z,23.66
2019-06-20T05:37:32.373Z,23.87
2019-06-20T05:38:32.349Z,23.77
2019-06-20T05:39:32.380Z,23.38
2019-06-20T05:40:32.365Z,22.95
2019-06-20T05:41:32.338Z,23.12
2019-06-20T05:42:32.426Z,23.31
2019-06-20T05:43:32.406Z,23.72
2019-06-20T05:44:32.331Z,24.12
2019-06-20T05:45:32.393Z,24.40
2019-06-20T05:46:32.364Z,23.89
2019-06-20T05:47:32.352Z,24.02
2019-06-20T05:48:32.400Z,24.08
2019-06-20T05:49:32.397Z,24.53
2019-06-20T05:50:32.388Z,24.04
2019-06-20T05:51:32.428Z,22.82
2019-06-20T05:52:32.394Z,22.69
2019-06-20T05:53:32.369Z,22.00
2019-06-20T05:54:32.440Z,23.03
2019-06-20T05:55:32.948Z,23.85
2019-06-20T05:56:32.363Z,24.32
2019-06-20T05:57:32.422Z,24.51
2019-06-20T05:58:32.934Z,24.71
2019-06-20T05:59:32.361Z,25.35
2019-06-20T06:00:32.447Z,23.94
2019-06-20T06:01:32.442Z,24.26
2019-06-20T06:02:32.373Z,24.47
2019-06-20T06:03:32.416Z,24.16
2019-06-20T06:04:32.401Z,23.74
2019-06-20T06:05:32.368Z,23.29
2019-06-20T06:06:32.413Z,23.28
2019-06-20T06:07:32.430Z,23.98
2019-06-20T06:08:32.385Z,24.55
2019-06-20T06:09:32.413Z,24.90
2019-06-20T06:10:32.398Z,25.13
2019-06-20T06:11:32.381Z,25.42
2019-06-20T06:12:32.430Z,25.82
2019-06-20T06:13:32.414Z,25.83
2019-06-20T06:14:32.396Z,24.97
2019-06-20T06:15:32.407Z,24.81
2019-06-20T06:16:32.424Z,24.17
2019-06-20T06:17:32.390Z,24.98
2019-06-20T06:18:32.456Z,23.34
2019-06-20T06:19:32.435Z,24.22
2019-06-20T06:20:32.402Z,25.06
2019-06-20T06:21:32.402Z,24.45
2019-06-20T06:22:32.458Z,24.89
2019-06-20T06:23:32.432Z,25.25
2019-06-20T06:24:32.468Z,25.29
2019-06-20T06:25:32.521Z,25.88
2019-06-20T06:26:32.518Z,25.78
2019-06-20T06:27:32.537Z,24.66
2019-06-20T06:28:32.519Z,24.50
2019-06-20T06:29:32.507Z,24.43
2019-06-20T06:30:32.632Z,24.26
2019-06-20T06:31:32.579Z,24.93
2019-06-20T06:32:40.166Z,23.62
2019-06-20T06:33:32.546Z,23.11
2019-06-20T06:34:32.586Z,23.88
2019-06-20T06:35:32.566Z,23.50
2019-06-20T06:36:32.589Z,23.49
2019-06-20T06:37:32.608Z,23.57
2019-06-20T06:38:32.583Z,23.38
2019-06-20T06:39:32.568Z,23.53
2019-06-20T06:40:32.569Z,23.69
2019-06-20T06:41:32.574Z,23.69
2019-06-20T06:42:32.630Z,23.45
2019-06-20T06:43:32.596Z,23.36
2019-06-20T06:44:32.570Z,23.41
2019-06-20T06:45:32.591Z,23.02
2019-06-20T06:46:43.670Z,22.28
2019-06-20T06:47:32.569Z,22.29
2019-06-20T06:48:32.590Z,22.31
2019-06-20T06:49:32.573Z,22.77
2019-06-20T06:50:32.588Z,22.66
2019-06-20T06:51:32.623Z,22.32
2019-06-20T06:52:32.579Z,21.73
2019-06-20T06:53:32.583Z,20.66
2019-06-20T06:54:32.586Z,21.21
2019-06-20T06:55:32.613Z,21.20
2019-06-20T06:56:32.625Z,21.70
2019-06-20T06:57:32.584Z,22.20
2019-06-20T06:58:32.609Z,22.59
2019-06-20T06:59:32.565Z,22.96
2019-06-20T07:00:32.604Z,23.27
2019-06-20T07:01:32.621Z,23.53
2019-06-20T07:02:32.546Z,23.76
2019-06-20T07:03:32.595Z,23.93
2019-06-20T07:04:32.592Z,23.97
2019-06-20T07:05:32.567Z,24.05
2019-06-20T07:06:32.622Z,24.10
2019-06-20T07:07:32.662Z,24.05
2019-06-20T07:08:32.589Z,24.18
2019-06-20T07:09:35.424Z,24.04
2019-06-20T07:10:32.620Z,23.99
2019-06-20T07:11:32.578Z,24.05
2019-06-20T07:12:32.587Z,23.86
2019-06-20T07:13:32.629Z,23.39
2019-06-20T07:14:32.619Z,23.29
2019-06-20T07:15:32.671Z,22.92
2019-06-20T07:16:32.587Z,23.24
2019-06-20T07:17:32.593Z,23.52
2019-06-20T07:18:32.606Z,23.75
2019-06-20T07:19:32.601Z,24.02
2019-06-20T07:20:32.606Z,23.86
2019-06-20T07:21:32.669Z,24.11
2019-06-20T07:22:32.607Z,22.02
2019-06-20T07:23:32.607Z,21.60
2019-06-20T07:24:32.682Z,22.22
2019-06-20T07:25:32.620Z,22.95
2019-06-20T07:26:32.578Z,23.47
2019-06-20T07:27:32.611Z,23.92
2019-06-20T07:28:32.619Z,24.26
2019-06-20T07:29:32.618Z,23.03
2019-06-20T07:30:32.638Z,23.57
2019-06-20T07:31:32.701Z,23.49
2019-06-20T07:32:32.580Z,24.71
2019-06-20T07:33:32.623Z,24.64
2019-06-20T07:34:32.616Z,24.39
2019-06-20T07:35:33.123Z,24.01
2019-06-20T07:36:32.662Z,24.13
2019-06-20T07:37:32.643Z,24.35
2019-06-20T07:38:32.655Z,24.41
2019-06-20T07:39:32.638Z,25.18
2019-06-20T07:40:32.643Z,23.90
2019-06-20T07:41:32.617Z,23.48
2019-06-20T07:42:32.645Z,23.87
2019-06-20T07:43:32.685Z,24.79
2019-06-20T07:44:32.624Z,25.94
2019-06-20T07:45:32.672Z,26.62
2019-06-20T07:46:32.663Z,25.72
2019-06-20T07:47:32.620Z,24.85
2019-06-20T07:48:32.689Z,23.98
2019-06-20T07:49:32.658Z,25.13
2019-06-20T07:50:32.615Z,26.26
2019-06-20T07:51:32.637Z,27.09
2019-06-20T07:52:32.662Z,27.88
2019-06-20T07:53:32.627Z,27.21
2019-06-20T07:54:32.668Z,26.60
2019-06-20T07:55:32.781Z,26.06
2019-06-20T07:56:32.643Z,25.37
2019-06-20T07:57:32.674Z,25.75
2019-06-20T07:58:32.680Z,26.36
2019-06-20T07:59:32.620Z,26.95
2019-06-20T08:00:32.694Z,25.54
2019-06-20T08:01:32.668Z,26.38
2019-06-20T08:02:32.693Z,26.63
2019-06-20T08:03:32.709Z,24.87
2019-06-20T08:04:32.695Z,24.63
2019-06-20T08:05:32.641Z,25.11
2019-06-20T08:06:32.735Z,26.38
2019-06-20T08:07:32.685Z,26.69
2019-06-20T08:08:32.627Z,27.09
2019-06-20T08:09:44.302Z,27.67
2019-06-20T08:10:32.673Z,26.32
2019-06-20T08:11:32.631Z,26.46
2019-06-20T08:12:32.671Z,25.83
2019-06-20T08:13:32.720Z,23.82
2019-06-20T08:14:32.666Z,24.51
2019-06-20T08:15:32.698Z,25.55
2019-06-20T08:16:32.779Z,24.99
2019-06-20T08:17:35.256Z,25.20
2019-06-20T08:18:32.677Z,24.62
2019-06-20T08:19:32.690Z,25.71
2019-06-20T08:20:32.695Z,26.90
2019-06-20T08:21:32.673Z,26.31
2019-06-20T08:22:32.681Z,25.76
2019-06-20T08:23:32.668Z,25.69
2019-06-20T08:24:32.713Z,26.23
2019-06-20T08:25:32.709Z,26.82
2019-06-20T08:26:32.700Z,27.52
2019-06-20T08:27:32.681Z,26.67
2019-06-20T08:28:32.693Z,27.14
2019-06-20T08:29:32.651Z,26.87
2019-06-20T08:30:32.684Z,26.31
2019-06-20T08:31:32.711Z,26.89
2019-06-20T08:32:32.674Z,27.36
2019-06-20T08:33:32.681Z,27.47
2019-06-20T08:34:32.677Z,28.63
2019-06-20T08:35:32.678Z,26.89
2019-06-20T08:36:32.735Z,26.94
2019-06-20T08:37:32.724Z,26.37
2019-06-20T08:38:32.685Z,26.88
2019-06-20T08:39:32.701Z,27.80
2019-06-20T08:40:32.676Z,29.06
2019-06-20T08:41:32.713Z,28.34
2019-06-20T08:42:32.734Z,27.26
2019-06-20T08:43:32.776Z,28.31
2019-06-20T08:44:32.722Z,29.04
2019-06-20T08:45:32.734Z,28.23
2019-06-20T08:46:32.720Z,27.86
2019-06-20T08:47:32.709Z,28.03
2019-06-20T08:48:32.692Z,29.27
2019-06-20T08:49:32.716Z,30.00
2019-06-20T08:50:32.685Z,28.54
2019-06-20T08:51:32.732Z,27.35
2019-06-20T08:52:32.720Z,28.38
2019-06-20T08:53:32.708Z,27.70
2019-06-20T08:54:32.728Z,26.25
2019-06-20T08:55:32.726Z,26.69
2019-06-20T08:56:32.692Z,27.30
2019-06-20T08:57:32.728Z,26.61
2019-06-20T08:58:32.731Z,26.11
2019-06-20T08:59:32.703Z,26.71
2019-06-20T09:00:32.743Z,26.77
2019-06-20T09:01:32.710Z,26.86
2019-06-20T09:02:32.679Z,26.04
2019-06-20T09:03:32.716Z,25.81
2019-06-20T09:04:32.720Z,26.24
2019-06-20T09:05:32.700Z,27.15
2019-06-20T09:06:32.768Z,28.18
2019-06-20T09:07:32.739Z,28.68
2019-06-20T09:08:32.762Z,29.16
2019-06-20T09:09:32.765Z,29.46
2019-06-20T09:10:32.726Z,29.48
2019-06-20T09:11:32.701Z,28.61
2019-06-20T09:12:32.778Z,27.08
2019-06-20T09:13:32.799Z,27.41
2019-06-20T09:14:32.713Z,27.95
2019-06-20T09:15:32.740Z,27.93
2019-06-20T09:16:32.736Z,28.21
2019-06-20T09:17:32.742Z,28.21
2019-06-20T09:18:32.774Z,27.21
2019-06-20T09:19:32.766Z,27.60
2019-06-20T09:20:32.751Z,28.33
2019-06-20T09:21:32.785Z,27.89
2019-06-20T09:22:32.753Z,27.95
2019-06-20T09:23:35.632Z,27.64
2019-06-20T09:24:32.795Z,28.82
2019-06-20T09:25:32.788Z,28.84
2019-06-20T09:26:32.746Z,28.08
2019-06-20T09:27:32.735Z,28.95
2019-06-20T09:28:32.748Z,29.11
2019-06-20T09:29:41.357Z,28.92
2019-06-20T09:30:32.742Z,29.22
2019-06-20T09:31:32.811Z,29.61
2019-06-20T09:32:32.738Z,29.69
2019-06-20T09:33:32.813Z,29.09
2019-06-20T09:34:32.752Z,27.48
2019-06-20T09:35:32.733Z,27.99
2019-06-20T09:36:32.767Z,29.12
2019-06-20T09:37:32.760Z,29.39
2019-06-20T09:38:32.740Z,29.41
2019-06-20T09:39:32.734Z,29.58
2019-06-20T09:40:32.802Z,28.73
2019-06-20T09:41:32.741Z,28.51
2019-06-20T09:42:32.803Z,29.17
2019-06-20T09:43:32.790Z,28.46
2019-06-20T09:44:32.755Z,27.16
2019-06-20T09:45:32.745Z,28.30
2019-06-20T09:46:32.786Z,29.23
2019-06-20T09:47:32.799Z,30.13
2019-06-20T09:48:32.795Z,30.62
2019-06-20T09:49:32.805Z,30.15
2019-06-20T09:50:32.764Z,29.39
2019-06-20T09:51:32.763Z,30.00
2019-06-20T09:52:32.779Z,28.63
2019-06-20T09:53:32.754Z,29.87
2019-06-20T09:54:32.835Z,30.07
2019-06-20T09:55:32.807Z,30.97
2019-06-20T09:56:32.762Z,31.82
2019-06-20T09:57:32.802Z,31.89
2019-06-20T09:58:32.807Z,32.18
2019-06-20T09:59:32.765Z,31.73
2019-06-20T10:00:32.784Z,30.72
2019-06-20T10:01:32.853Z,31.77
2019-06-20T10:02:32.758Z,32.45
2019-06-20T10:03:32.839Z,32.82
2019-06-20T10:04:32.802Z,32.58
2019-06-20T10:05:32.805Z,30.04
2019-06-20T10:06:32.857Z,30.09
2019-06-20T10:07:32.811Z,28.83
2019-06-20T10:08:32.762Z,29.80
2019-06-20T10:09:32.827Z,29.66
2019-06-20T10:10:32.798Z,30.79
2019-06-20T10:11:32.779Z,30.08
2019-06-20T10:12:32.840Z,29.00
2019-06-20T10:13:32.940Z,29.00
2019-06-20T10:14:32.827Z,28.76
2019-06-20T10:15:32.846Z,29.68
2019-06-20T10:16:45.248Z,30.09
2019-06-20T10:17:32.789Z,29.90
2019-06-20T10:18:32.811Z,29.11
2019-06-20T10:19:32.837Z,28.05
2019-06-20T10:20:32.817Z,28.01
2019-06-20T10:21:32.836Z,28.61
2019-06-20T10:22:32.790Z,30.28
2019-06-20T10:23:32.784Z,31.22
2019-06-20T10:24:32.845Z,31.42
2019-06-20T10:25:32.828Z,31.29
2019-06-20T10:26:32.793Z,32.44
2019-06-20T10:27:32.819Z,31.06
2019-06-20T10:28:32.795Z,31.92
2019-06-20T10:29:32.791Z,31.72
2019-06-20T10:30:32.869Z,32.28
2019-06-20T10:31:32.842Z,32.34
2019-06-20T10:32:32.848Z,30.26
2019-06-20T10:33:32.851Z,31.23
2019-06-20T10:34:32.839Z,31.85
2019-06-20T10:35:32.803Z,32.28
2019-06-20T10:36:32.894Z,32.05
2019-06-20T10:37:32.857Z,30.80
2019-06-20T10:38:32.784Z,31.66
2019-06-20T10:39:32.838Z,32.27
2019-06-20T10:40:32.854Z,32.37
2019-06-20T10:41:32.818Z,32.34
2019-06-20T10:42:32.845Z,32.17
2019-06-20T10:43:32.867Z,30.43
2019-06-20T10:44:32.817Z,31.00
2019-06-20T10:45:32.830Z,31.03
2019-06-20T10:46:32.828Z,32.36
2019-06-20T10:47:35.932Z,32.74
2019-06-20T10:48:32.878Z,31.85
2019-06-20T10:49:32.874Z,31.94
2019-06-20T10:50:32.795Z,32.94
2019-06-20T10:51:32.881Z,33.13
2019-06-20T10:52:32.846Z,33.22
2019-06-20T10:53:32.828Z,32.50
2019-06-20T10:54:32.867Z,32.24
2019-06-20T10:55:32.862Z,31.73
2019-06-20T10:56:32.805Z,31.92
2019-06-20T10:57:32.887Z,30.28
2019-06-20T10:58:32.878Z,30.71
2019-06-20T10:59:32.852Z,31.00
2019-06-20T11:00:32.894Z,30.33
2019-06-20T11:01:32.862Z,30.06
2019-06-20T11:02:32.818Z,30.25
2019-06-20T11:03:32.852Z,31.15
2019-06-20T11:04:32.845Z,31.99
2019-06-20T11:05:32.868Z,30.27
2019-06-20T11:06:32.877Z,29.28
2019-06-20T11:07:32.889Z,30.61
2019-06-20T11:08:32.869Z,29.68
2019-06-20T11:09:32.853Z,30.74
2019-06-20T11:10:32.835Z,32.32
2019-06-20T11:11:32.845Z,31.78
2019-06-20T11:12:42.867Z,31.59
2019-06-20T11:13:32.861Z,30.88
2019-06-20T11:14:32.847Z,29.18
2019-06-20T11:15:32.881Z,29.72
2019-06-20T11:16:32.854Z,29.80
2019-06-20T11:17:32.852Z,30.12
2019-06-20T11:18:32.922Z,29.97
2019-06-20T11:19:32.891Z,29.88
2019-06-20T11:20:32.850Z,29.83
2019-06-20T11:21:32.864Z,30.46
2019-06-20T11:22:32.860Z,29.92
2019-06-20T11:23:32.862Z,30.82
2019-06-20T11:24:32.916Z,31.36
2019-06-20T11:25:32.883Z,31.66
2019-06-20T11:26:32.836Z,30.24
2019-06-20T11:27:32.888Z,29.56
2019-06-20T11:28:32.865Z,29.23
2019-06-20T11:29:32.844Z,30.11
2019-06-20T11:30:44.844Z,30.91
2019-06-20T11:31:32.894Z,31.58
2019-06-20T11:32:33.148Z,31.31
2019-06-20T11:33:32.911Z,30.66
2019-06-20T11:34:32.909Z,29.47
2019-06-20T11:35:32.851Z,30.04
2019-06-20T11:36:32.915Z,30.76
2019-06-20T11:37:32.912Z,31.31
2019-06-20T11:38:32.869Z,30.95
2019-06-20T11:39:32.902Z,31.41
2019-06-20T11:40:32.876Z,29.50
2019-06-20T11:41:32.865Z,29.99
2019-06-20T11:42:32.928Z,29.94
2019-06-20T11:43:34.606Z,29.97
2019-06-20T11:44:32.869Z,29.79
2019-06-20T11:45:35.477Z,29.90
2019-06-20T11:46:35.284Z,29.79
2019-06-20T11:47:34.921Z,29.85
2019-06-20T11:48:35.178Z,29.71
2019-06-20T11:49:34.581Z,29.46
2019-06-20T11:50:34.470Z,29.45
2019-06-20T11:51:34.315Z,29.40
2019-06-20T11:52:36.895Z,29.31
2019-06-20T11:53:33.657Z,29.50
2019-06-20T11:54:34.322Z,29.83
2019-06-20T11:55:32.920Z,30.13
2019-06-20T11:56:32.878Z,30.26
2019-06-20T11:57:32.986Z,30.40
2019-06-20T11:58:33.315Z,30.77
2019-06-20T11:59:32.899Z,30.96
2019-06-20T12:00:32.925Z,31.32
2019-06-20T12:01:33.284Z,31.82
2019-06-20T12:02:32.900Z,32.26
2019-06-20T12:03:32.914Z,32.44
2019-06-20T12:04:32.913Z,31.94
2019-06-20T12:05:32.883Z,31.43
2019-06-20T12:06:32.927Z,31.19
2019-06-20T12:07:33.482Z,30.35
2019-06-20T12:08:34.077Z,30.56
2019-06-20T12:09:32.975Z,30.99
2019-06-20T12:10:32.955Z,30.63
2019-06-20T12:11:32.907Z,30.88
2019-06-20T12:12:32.957Z,29.16
2019-06-20T12:13:32.944Z,29.65
2019-06-20T12:14:32.923Z,30.42
2019-06-20T12:15:32.943Z,30.25
2019-06-20T12:16:32.959Z,30.31
2019-06-20T12:17:32.895Z,30.59
2019-06-20T12:18:33.002Z,30.48
2019-06-20T12:19:32.943Z,30.65
2019-06-20T12:20:32.925Z,29.90
2019-06-20T12:21:32.971Z,29.88
2019-06-20T12:22:32.948Z,29.92
2019-06-20T12:23:32.952Z,28.83
2019-06-20T12:24:32.977Z,29.11
2019-06-20T12:25:32.936Z,29.39
2019-06-20T12:26:32.918Z,29.26
2019-06-20T12:27:32.949Z,29.23
2019-06-20T12:28:32.947Z,28.80
2019-06-20T12:29:32.968Z,29.04
2019-06-20T12:30:32.994Z,29.08
2019-06-20T12:31:32.956Z,29.03
2019-06-20T12:32:32.922Z,28.91
2019-06-20T12:33:32.954Z,28.42
2019-06-20T12:34:32.984Z,28.76
2019-06-20T12:35:32.980Z,28.90
2019-06-20T12:36:32.993Z,29.10
2019-06-20T12:37:32.963Z,28.90
2019-06-20T12:38:32.929Z,28.31
2019-06-20T12:39:32.967Z,28.50
2019-06-20T12:40:32.963Z,27.81
2019-06-20T12:41:32.952Z,27.75
2019-06-20T12:42:33.009Z,27.84
2019-06-20T12:43:32.991Z,28.13
2019-06-20T12:44:32.956Z,27.91
2019-06-20T12:45:33.019Z,28.06
2019-06-20T12:46:32.968Z,28.04
2019-06-20T12:47:32.995Z,28.16
2019-06-20T12:48:32.983Z,28.43
2019-06-20T12:49:32.990Z,28.69
2019-06-20T12:50:33.111Z,28.67
2019-06-20T12:51:32.988Z,28.75
2019-06-20T12:52:32.971Z,28.69